createdAt,value
2019-01-23T00:01:02.546Z,39.58
2019-01-23T00:03:32.483Z,38.38
2019-01-23T00:06:02.333Z,38.40
2019-01-23T00:08:32.175Z,40.50
2019-01-23T00:11:02.053Z,39.80
2019-01-23T00:13:31.854Z,39.92
2019-01-23T00:16:01.659Z,37.35
2019-01-23T00:18:31.484Z,36.97
2019-01-23T00:21:01.317Z,37.42
2019-01-23T00:23:31.132Z,38.25
2019-01-23T00:26:01.013Z,36.85
2019-01-23T00:28:30.863Z,37.80
2019-01-23T00:31:00.635Z,37.75
2019-01-23T00:33:30.488Z,36.63
2019-01-23T00:36:00.250Z,36.23
2019-01-23T00:38:30.049Z,37.85
2019-01-23T00:40:59.883Z,33.23
2019-01-23T00:43:29.699Z,36.28
2019-01-23T00:45:59.536Z,37.10
2019-01-23T00:48:29.350Z,37.20
2019-01-23T00:50:59.170Z,35.50
2019-01-23T00:53:28.986Z,36.00
2019-01-23T00:55:58.847Z,36.13
2019-01-23T00:58:28.626Z,34.95
2019-01-23T01:00:58.425Z,36.20
2019-01-23T01:03:28.334Z,34.27
2019-01-23T01:05:58.110Z,35.63
2019-01-23T01:08:27.929Z,35.23
2019-01-23T01:10:57.763Z,36.83
2019-01-23T01:13:27.565Z,35.17
2019-01-23T01:15:57.342Z,35.48
2019-01-23T01:18:27.141Z,35.48
2019-01-23T01:20:56.935Z,34.78
2019-01-23T01:23:26.739Z,35.90
2019-01-23T01:25:56.529Z,36.20
2019-01-23T01:28:26.310Z,36.50
2019-01-23T01:30:56.096Z,36.83
2019-01-23T01:33:25.871Z,35.65
2019-01-23T01:35:55.693Z,35.60
2019-01-23T01:38:25.493Z,37.03
2019-01-23T01:40:55.358Z,36.98
2019-01-23T01:43:25.152Z,34.13
2019-01-23T01:45:54.971Z,34.88
2019-01-23T01:48:24.736Z,35.23
2019-01-23T01:50:54.566Z,35.92
2019-01-23T01:53:24.365Z,35.35
2019-01-23T01:55:54.127Z,35.40
2019-01-23T01:58:23.943Z,35.52
2019-01-23T02:00:53.739Z,34.15
2019-01-23T02:03:23.528Z,36.05
2019-01-23T02:05:53.347Z,35.10
2019-01-23T02:08:23.197Z,34.45
2019-01-23T02:10:52.987Z,34.37
2019-01-23T02:13:22.779Z,37.25
2019-01-23T02:15:52.582Z,34.85
2019-01-23T02:18:22.404Z,34.70
2019-01-23T02:20:53.249Z,33.48
2019-01-23T02:23:23.038Z,34.98
2019-01-23T02:25:52.889Z,34.67
2019-01-23T02:28:22.662Z,34.27
2019-01-23T02:30:52.461Z,34.10
2019-01-23T02:33:22.351Z,33.30
2019-01-23T02:35:52.142Z,34.20
2019-01-23T02:38:21.945Z,32.05
2019-01-23T02:40:51.745Z,34.25
2019-01-23T02:43:22.605Z,33.30
2019-01-23T02:45:52.377Z,33.95
2019-01-23T02:48:22.170Z,34.10
2019-01-23T02:50:51.930Z,32.10
2019-01-23T02:53:21.784Z,33.08
2019-01-23T02:55:52.624Z,34.00
2019-01-23T02:58:22.505Z,34.35
2019-01-23T03:00:52.297Z,32.33
2019-01-23T03:03:22.126Z,33.83
2019-01-23T03:05:51.893Z,32.95
2019-01-23T03:08:21.713Z,32.28
2019-01-23T03:10:51.595Z,33.65
2019-01-23T03:13:21.401Z,34.65
2019-01-23T03:15:51.287Z,33.40
2019-01-23T03:18:21.039Z,33.25
2019-01-23T03:20:50.869Z,31.82
2019-01-23T03:23:20.674Z,33.35
2019-01-23T03:25:50.467Z,31.65
2019-01-23T03:28:20.262Z,31.70
2019-01-23T03:30:50.078Z,32.33
2019-01-23T03:33:19.852Z,33.90
2019-01-23T03:35:49.711Z,32.58
2019-01-23T03:38:20.462Z,34.63
2019-01-23T03:40:50.298Z,33.35
2019-01-23T03:43:20.098Z,34.73
2019-01-23T03:45:49.902Z,34.00
2019-01-23T03:48:19.684Z,35.33
2019-01-23T03:50:49.505Z,33.67
2019-01-23T03:53:19.269Z,34.48
2019-01-23T03:55:49.080Z,35.58
2019-01-23T03:58:18.842Z,34.75
2019-01-23T04:00:48.654Z,35.58
2019-01-23T04:03:18.448Z,34.00
2019-01-23T04:05:48.508Z,36.30
2019-01-23T04:08:18.309Z,35.75
2019-01-23T04:10:48.166Z,34.90
2019-01-23T04:13:17.941Z,35.83
2019-01-23T04:15:47.798Z,34.45
2019-01-23T04:18:17.601Z,34.45
2019-01-23T04:20:47.405Z,33.58
2019-01-23T04:23:17.197Z,34.88
2019-01-23T04:25:49.043Z,34.27
2019-01-23T04:28:18.816Z,33.92
2019-01-23T04:30:48.614Z,33.67
2019-01-23T04:33:18.381Z,34.23
2019-01-23T04:35:48.166Z,32.08
2019-01-23T04:38:17.967Z,33.30
2019-01-23T04:40:47.747Z,32.70
2019-01-23T04:43:17.526Z,33.92
2019-01-23T04:45:47.313Z,33.10
2019-01-23T04:48:17.082Z,32.85
2019-01-23T04:51:12.742Z,33.00
2019-01-23T04:53:44.506Z,34.08
2019-01-23T04:56:14.289Z,33.35
2019-01-23T04:58:44.081Z,32.83
2019-01-23T05:01:15.159Z,33.50
2019-01-23T05:03:44.960Z,34.88
2019-01-23T05:06:14.767Z,33.67
2019-01-23T05:08:44.621Z,34.38
2019-01-23T05:11:14.431Z,35.28
2019-01-23T05:13:44.344Z,32.25
2019-01-23T05:16:14.129Z,32.95
2019-01-23T05:18:43.910Z,33.78
2019-01-23T05:21:13.733Z,34.88
2019-01-23T05:23:43.525Z,34.73
2019-01-23T05:26:13.298Z,33.65
2019-01-23T05:28:43.115Z,33.53
2019-01-23T05:31:12.890Z,34.43
2019-01-23T05:33:42.852Z,35.07
2019-01-23T05:36:12.665Z,35.23
2019-01-23T05:38:42.487Z,37.83
2019-01-23T05:41:12.302Z,36.03
2019-01-23T05:43:42.128Z,33.98
2019-01-23T05:46:12.050Z,36.45
2019-01-23T05:48:42.774Z,37.20
2019-01-23T05:51:12.656Z,34.70
2019-01-23T05:53:42.550Z,36.73
2019-01-23T05:56:12.413Z,36.50
2019-01-23T05:58:42.211Z,35.08
2019-01-23T06:01:11.989Z,35.45
2019-01-23T06:03:41.813Z,36.88
2019-01-23T06:06:11.712Z,38.75
2019-01-23T06:08:41.565Z,36.93
2019-01-23T06:11:11.471Z,38.67
2019-01-23T06:13:41.267Z,35.98
2019-01-23T06:16:11.058Z,38.45
2019-01-23T06:18:41.110Z,37.20
2019-01-23T06:21:11.051Z,38.48
2019-01-23T06:23:40.834Z,36.93
2019-01-23T06:26:10.749Z,38.33
2019-01-23T06:28:40.547Z,38.40
2019-01-23T06:31:10.330Z,37.42
2019-01-23T06:33:40.154Z,37.60
2019-01-23T06:36:09.998Z,37.85
2019-01-23T06:38:39.786Z,36.77
2019-01-23T06:41:09.612Z,35.95
2019-01-23T06:43:39.398Z,37.75
2019-01-23T06:46:09.293Z,39.48
2019-01-23T06:48:39.051Z,39.20
2019-01-23T06:51:08.826Z,37.70
2019-01-23T06:53:38.621Z,35.85
2019-01-23T06:56:08.660Z,38.55
2019-01-23T06:58:38.803Z,37.83
2019-01-23T07:01:08.608Z,37.75
2019-01-23T07:03:38.434Z,37.55
2019-01-23T07:06:08.381Z,37.17
2019-01-23T07:08:38.274Z,39.40
2019-01-23T07:11:08.146Z,39.03
2019-01-23T07:13:37.961Z,37.83
2019-01-23T07:16:07.854Z,35.60
2019-01-23T07:18:37.727Z,35.05
2019-01-23T07:21:07.543Z,33.98
2019-01-23T07:23:37.348Z,33.80
2019-01-23T07:26:07.139Z,34.00
2019-01-23T07:28:37.009Z,34.05
2019-01-23T07:31:06.857Z,34.90
2019-01-23T07:33:36.634Z,34.23
2019-01-23T07:36:06.543Z,34.10
2019-01-23T07:38:36.405Z,31.67
2019-01-23T07:41:06.392Z,33.23
2019-01-23T07:43:36.425Z,32.70
2019-01-23T07:46:06.264Z,33.25
2019-01-23T07:48:36.093Z,32.05
2019-01-23T07:51:05.997Z,32.35
2019-01-23T07:53:35.794Z,33.55
2019-01-23T07:56:05.597Z,34.23
2019-01-23T07:58:35.529Z,33.28
2019-01-23T08:01:05.467Z,36.83
2019-01-23T08:03:35.253Z,35.10
2019-01-23T08:06:05.090Z,34.25
2019-01-23T08:08:34.889Z,34.48
2019-01-23T08:11:04.943Z,34.75
2019-01-23T08:13:34.715Z,37.08
2019-01-23T08:16:04.505Z,33.55
2019-01-23T08:18:34.331Z,33.10
2019-01-23T08:21:04.203Z,34.43
2019-01-23T08:23:34.073Z,33.80
2019-01-23T08:26:03.934Z,34.13
2019-01-23T08:28:33.737Z,34.70
2019-01-23T08:31:03.699Z,33.67
2019-01-23T08:33:33.489Z,36.17
2019-01-23T08:36:03.298Z,35.28
2019-01-23T08:38:33.208Z,33.80
2019-01-23T08:41:02.984Z,36.60
2019-01-23T08:43:32.842Z,34.80
2019-01-23T08:46:02.673Z,35.03
2019-01-23T08:48:32.462Z,37.38
2019-01-23T08:51:02.242Z,34.18
2019-01-23T08:53:32.046Z,35.20
2019-01-23T08:56:01.912Z,33.53
2019-01-23T08:58:31.741Z,35.33
2019-01-23T09:01:01.637Z,32.78
2019-01-23T09:03:32.458Z,36.13
2019-01-23T09:06:02.266Z,35.55
2019-01-23T09:08:37.588Z,37.03
2019-01-23T09:11:03.710Z,35.13
2019-01-23T09:13:33.521Z,34.03
2019-01-23T09:16:03.485Z,34.78
2019-01-23T09:18:33.244Z,37.30
2019-01-23T09:21:03.134Z,35.58
2019-01-23T09:23:32.928Z,39.88
2019-01-23T09:26:02.792Z,35.20
2019-01-23T09:28:33.746Z,37.23
2019-01-23T09:31:34.800Z,37.58
2019-01-23T09:34:38.395Z,36.38
2019-01-23T09:37:52.281Z,36.42
2019-01-23T09:41:09.266Z,37.70
2019-01-23T09:44:19.447Z,36.10
2019-01-23T09:47:28.791Z,38.50
2019-01-23T09:50:31.825Z,40.78
2019-01-23T09:53:35.391Z,36.50
2019-01-23T09:56:05.538Z,40.03
2019-01-23T09:58:35.374Z,38.95
2019-01-23T10:01:06.724Z,35.50
2019-01-23T10:03:38.065Z,39.08
2019-01-23T10:06:08.108Z,39.90
2019-01-23T10:08:37.924Z,38.33
2019-01-23T10:11:07.843Z,37.00
2019-01-23T10:13:37.637Z,37.35
2019-01-23T10:16:11.475Z,38.48
2019-01-23T10:18:41.333Z,38.28
2019-01-23T10:21:11.256Z,40.15
2019-01-23T10:23:41.122Z,40.25
2019-01-23T10:26:10.978Z,40.85
2019-01-23T10:28:40.782Z,38.02
2019-01-23T10:31:10.583Z,39.33
2019-01-23T10:33:40.378Z,38.47
2019-01-23T10:36:10.264Z,38.23
2019-01-23T10:38:40.075Z,42.30
2019-01-23T10:41:09.936Z,39.88
2019-01-23T10:43:39.865Z,38.70
2019-01-23T10:46:09.852Z,40.15
2019-01-23T10:48:39.665Z,39.25
2019-01-23T10:51:09.662Z,40.95
2019-01-23T10:53:39.520Z,39.85
2019-01-23T10:56:09.539Z,39.90
2019-01-23T10:58:39.321Z,41.00
2019-01-23T11:01:13.328Z,40.65
2019-01-23T11:03:40.765Z,40.97
2019-01-23T11:06:10.552Z,41.90
2019-01-23T11:08:40.339Z,40.65
2019-01-23T11:11:10.180Z,39.15
2019-01-23T11:13:39.955Z,41.40
2019-01-23T11:16:09.759Z,39.40
2019-01-23T11:18:39.570Z,39.00
2019-01-23T11:21:09.455Z,40.23
2019-01-23T11:23:39.342Z,41.40
2019-01-23T11:26:10.281Z,40.88
2019-01-23T11:28:40.094Z,39.15
2019-01-23T11:31:09.953Z,38.27
2019-01-23T11:33:39.818Z,39.73
2019-01-23T11:36:09.623Z,39.40
2019-01-23T11:38:39.471Z,39.63
2019-01-23T11:41:09.276Z,39.73
2019-01-23T11:43:39.181Z,39.27
2019-01-23T11:46:09.003Z,37.03
2019-01-23T11:48:38.858Z,42.62
2019-01-23T11:51:09.111Z,40.45
2019-01-23T11:53:38.896Z,39.80
2019-01-23T11:56:08.926Z,40.85
2019-01-23T11:58:38.785Z,43.75
2019-01-23T12:01:08.973Z,41.88
2019-01-23T12:03:38.753Z,42.90
2019-01-23T12:06:08.640Z,41.40
2019-01-23T12:08:38.434Z,40.73
2019-01-23T12:11:08.275Z,42.70
2019-01-23T12:13:38.110Z,40.77
2019-01-23T12:16:07.891Z,40.00
2019-01-23T12:18:37.981Z,41.73
2019-01-23T12:21:07.857Z,42.90
2019-01-23T12:23:37.774Z,41.68
2019-01-23T12:26:07.713Z,43.20
2019-01-23T12:28:37.485Z,39.80
2019-01-23T12:31:07.330Z,41.02
2019-01-23T12:33:37.112Z,41.90
2019-01-23T12:36:06.916Z,40.60
2019-01-23T12:38:36.752Z,41.10
2019-01-23T12:41:06.535Z,40.70
2019-01-23T12:43:37.510Z,40.00
2019-01-23T12:46:07.302Z,42.62
2019-01-23T12:48:37.145Z,43.05
2019-01-23T12:51:06.979Z,41.68
2019-01-23T12:53:36.807Z,46.08
2019-01-23T12:56:06.658Z,41.30
2019-01-23T12:58:36.452Z,40.25
2019-01-23T13:01:06.337Z,40.85
2019-01-23T13:03:36.202Z,40.12
2019-01-23T13:06:07.047Z,43.42
2019-01-23T13:08:37.586Z,39.38
2019-01-23T13:11:07.747Z,39.65
2019-01-23T13:13:37.550Z,37.63
2019-01-23T13:16:07.597Z,39.90
2019-01-23T13:18:38.232Z,38.65
2019-01-23T13:21:08.481Z,36.10
2019-01-23T13:23:40.165Z,39.35
2019-01-23T13:26:10.250Z,36.65
2019-01-23T13:28:40.044Z,37.50
2019-01-23T13:31:09.820Z,36.55
2019-01-23T13:33:39.630Z,38.10
2019-01-23T13:36:10.267Z,36.95
2019-01-23T13:38:40.186Z,39.65
2019-01-23T13:41:10.002Z,42.10
2019-01-23T13:43:39.801Z,38.55
2019-01-23T13:46:09.645Z,37.90
2019-01-23T13:48:39.469Z,37.08
2019-01-23T13:51:09.539Z,38.28
2019-01-23T13:53:39.430Z,38.25
2019-01-23T13:56:09.506Z,39.30
2019-01-23T13:58:41.840Z,37.57
2019-01-23T14:01:11.148Z,38.88
2019-01-23T14:03:40.939Z,37.83
2019-01-23T14:06:10.820Z,39.48
2019-01-23T14:08:41.139Z,38.13
2019-01-23T14:11:11.145Z,39.33
2019-01-23T14:13:41.969Z,37.93
2019-01-23T14:16:12.161Z,38.40
2019-01-23T14:18:42.208Z,38.48
2019-01-23T14:21:12.479Z,40.17
2019-01-23T14:23:42.316Z,38.15
2019-01-23T14:26:12.138Z,37.15
2019-01-23T14:28:41.936Z,34.65
2019-01-23T14:31:11.854Z,36.47
2019-01-23T14:33:41.621Z,36.28
2019-01-23T14:36:11.510Z,35.95
2019-01-23T14:38:41.298Z,37.07
2019-01-23T14:41:11.118Z,37.53
2019-01-23T14:43:40.915Z,36.28
2019-01-23T14:46:10.836Z,34.18
2019-01-23T14:48:40.615Z,36.50
2019-01-23T14:51:10.487Z,36.28
2019-01-23T14:53:40.331Z,36.28
2019-01-23T14:56:10.181Z,37.70
2019-01-23T14:58:40.073Z,37.65
2019-01-23T15:01:09.968Z,37.78
2019-01-23T15:03:39.861Z,36.85
2019-01-23T15:06:09.683Z,37.75
2019-01-23T15:08:39.545Z,38.53
2019-01-23T15:11:09.464Z,46.20
2019-01-23T15:13:39.280Z,41.90
2019-01-23T15:16:09.128Z,40.50
2019-01-23T15:18:39.338Z,39.90
2019-01-23T15:21:09.153Z,37.50
2019-01-23T15:23:39.021Z,39.27
2019-01-23T15:26:08.859Z,43.63
2019-01-23T15:28:38.679Z,41.10
2019-01-23T15:31:08.681Z,44.23
2019-01-23T15:33:38.577Z,42.55
2019-01-23T15:36:08.369Z,44.93
2019-01-23T15:38:38.247Z,42.55
2019-01-23T15:41:08.084Z,39.88
2019-01-23T15:43:37.900Z,41.20
2019-01-23T15:46:07.690Z,40.65
2019-01-23T15:48:37.563Z,41.28
2019-01-23T15:51:07.350Z,39.98
2019-01-23T15:53:38.238Z,38.75
2019-01-23T15:56:08.057Z,39.13
2019-01-23T15:58:37.852Z,37.58
2019-01-23T16:01:07.666Z,37.20
2019-01-23T16:03:37.479Z,36.55
2019-01-23T16:06:07.233Z,40.52
2019-01-23T16:08:37.119Z,33.98
2019-01-23T16:11:07.870Z,37.08
2019-01-23T16:13:42.251Z,36.93
2019-01-23T16:16:09.272Z,40.73
2019-01-23T16:18:39.505Z,39.67
2019-01-23T16:21:09.719Z,38.48
2019-01-23T16:23:40.193Z,38.78
2019-01-23T16:26:10.554Z,37.83
2019-01-23T16:28:40.358Z,39.10
2019-01-23T16:31:10.592Z,36.83
2019-01-23T16:33:40.606Z,36.23
2019-01-23T16:36:11.385Z,35.65
2019-01-23T16:38:41.932Z,38.38
2019-01-23T16:41:12.369Z,35.63
2019-01-23T16:43:43.221Z,36.13
2019-01-23T16:46:13.193Z,35.40
2019-01-23T16:48:43.159Z,32.35
2019-01-23T16:51:13.309Z,35.17
2019-01-23T16:53:44.105Z,33.33
2019-01-23T16:56:14.030Z,33.92
2019-01-23T16:58:43.846Z,35.20
2019-01-23T17:01:13.642Z,35.65
2019-01-23T17:03:43.667Z,35.47
2019-01-23T17:06:13.718Z,33.23
2019-01-23T17:08:43.520Z,34.25
2019-01-23T17:11:13.305Z,33.45
2019-01-23T17:13:43.154Z,33.17
2019-01-23T17:16:14.127Z,32.00
2019-01-23T17:18:44.029Z,31.87
2019-01-23T17:21:13.842Z,33.35
2019-01-23T17:23:43.710Z,33.40
2019-01-23T17:26:13.638Z,34.48
2019-01-23T17:28:43.487Z,34.25
2019-01-23T17:31:13.411Z,33.00
2019-01-23T17:33:43.301Z,34.88
2019-01-23T17:36:13.150Z,34.33
2019-01-23T17:38:43.013Z,32.53
2019-01-23T17:41:12.940Z,33.63
2019-01-23T17:43:43.295Z,34.35
2019-01-23T17:46:13.143Z,33.88
2019-01-23T17:48:43.038Z,33.45
2019-01-23T17:51:12.862Z,33.40
2019-01-23T17:53:42.728Z,33.63
2019-01-23T17:56:12.614Z,33.58
2019-01-23T17:58:42.491Z,32.67
2019-01-23T18:01:12.784Z,31.17
2019-01-23T18:03:42.794Z,31.82
2019-01-23T18:06:12.694Z,34.75
2019-01-23T18:08:42.543Z,30.97
2019-01-23T18:11:12.591Z,32.73
2019-01-23T18:13:42.420Z,32.40
2019-01-23T18:16:13.002Z,34.00
2019-01-23T18:18:43.002Z,33.98
2019-01-23T18:21:12.964Z,34.40
2019-01-23T18:23:42.910Z,35.68
2019-01-23T18:26:12.809Z,35.40
2019-01-23T18:28:42.607Z,32.85
2019-01-23T18:31:26.604Z,34.40
2019-01-23T18:34:33.504Z,34.13
2019-01-23T18:37:47.351Z,33.50
2019-01-23T18:40:46.463Z,33.90
2019-01-23T18:44:05.162Z,33.48
2019-01-23T18:47:18.797Z,33.55
2019-01-23T18:50:30.461Z,35.58
2019-01-23T18:53:00.387Z,34.53
2019-01-23T18:55:30.271Z,33.38
2019-01-23T18:58:00.377Z,34.50
2019-01-23T19:00:30.163Z,35.00
2019-01-23T19:03:06.741Z,36.33
2019-01-23T19:05:31.698Z,34.13
2019-01-23T19:08:02.670Z,36.10
2019-01-23T19:10:32.543Z,35.50
2019-01-23T19:13:02.360Z,34.65
2019-01-23T19:15:32.602Z,36.15
2019-01-23T19:18:02.583Z,35.73
2019-01-23T19:20:32.422Z,35.45
2019-01-23T19:23:02.293Z,36.13
2019-01-23T19:25:32.389Z,35.17
2019-01-23T19:28:02.336Z,35.15
2019-01-23T19:30:32.270Z,36.03
2019-01-23T19:33:02.389Z,37.10
2019-01-23T19:35:32.315Z,36.63
2019-01-23T19:38:02.164Z,35.55
2019-01-23T19:40:32.794Z,34.18
2019-01-23T19:43:02.845Z,37.87
2019-01-23T19:45:32.852Z,38.17
2019-01-23T19:48:02.768Z,36.23
2019-01-23T19:50:32.776Z,35.33
2019-01-23T19:53:02.702Z,33.88
2019-01-23T19:55:32.551Z,35.10
2019-01-23T19:58:04.451Z,34.13
2019-01-23T20:00:34.099Z,37.53
2019-01-23T20:03:04.065Z,35.33
2019-01-23T20:05:34.574Z,36.45
2019-01-23T20:08:05.309Z,34.08
2019-01-23T20:10:35.150Z,34.03
2019-01-23T20:13:05.214Z,34.53
2019-01-23T20:15:35.114Z,36.05
2019-01-23T20:18:07.564Z,36.98
2019-01-23T20:20:37.885Z,34.95
2019-01-23T20:23:07.869Z,35.88
2019-01-23T20:25:37.672Z,34.92
2019-01-23T20:28:14.148Z,35.48
2019-01-23T20:30:45.376Z,33.80
2019-01-23T20:33:15.325Z,37.10
2019-01-23T20:35:45.811Z,40.00
2019-01-23T20:38:16.237Z,38.23
2019-01-23T20:40:46.272Z,35.83
2019-01-23T20:43:16.514Z,35.17
2019-01-23T20:45:46.596Z,35.63
2019-01-23T20:48:16.634Z,36.25
2019-01-23T20:50:49.374Z,35.50
2019-01-23T20:53:18.310Z,37.48
2019-01-23T20:55:48.130Z,34.88
2019-01-23T20:58:20.772Z,37.88
2019-01-23T21:00:50.614Z,35.92
2019-01-23T21:03:20.430Z,36.80
2019-01-23T21:05:52.182Z,34.90
2019-01-23T21:08:23.227Z,36.55
2019-01-23T21:10:53.111Z,35.85
2019-01-23T21:13:23.047Z,37.20
2019-01-23T21:15:52.902Z,38.13
2019-01-23T21:18:22.771Z,35.65
2019-01-23T21:20:53.667Z,37.08
2019-01-23T21:23:23.596Z,35.90
2019-01-23T21:25:53.538Z,37.83
2019-01-23T21:28:23.351Z,36.10
2019-01-23T21:30:53.183Z,36.38
2019-01-23T21:33:22.999Z,36.25
2019-01-23T21:35:52.814Z,38.30
2019-01-23T21:38:22.666Z,38.02
2019-01-23T21:40:52.557Z,38.08
2019-01-23T21:43:22.518Z,36.70
